Salinas Municipal Airport
KSNS : rendu visible

Aérodrome :











RETROUVEZ-NOUS SUR...

 
LOGIN :

S'inscrire | Disclaimer

   EN    FR    IT 

 









Légende :    VFR   VFR Marginal   IFR   IFR Intensif   IFR Très Intensif
Visi : 
Plafond : 
>= 8 km
>= 3000ft
5 à 8 km
1000 à 3000 ft
1500m à 5 km
500 à 1000 ft
800 à 1500m
200 à 500 ft
< 800m
< 200 ft
Symboles :   Orages  Brouillard  Fortes neiges  Fortes précipitations  Vent > 20 kt






- Altitude de l'aérodrome : 85 ft


KSNS - Salinas Municipal

DERNIER METAR :
  • 011305Z 27009KT 10SM OVC015 12/08 A2999 RMK AO2 T01170083

METARs EXPIRÉS :
  • 011253Z 27007KT 10SM BKN013 OVC017 12/09 A2999 RMK AO2 SLP164 T01220089
  • 011153Z AUTO 26007KT 10SM OVC014 12/09 A2999 RMK AO2 SLP165 T01220089 10128 20117 56012
  • 011129Z AUTO 25007KT 10SM OVC014 12/09 A3000 RMK AO2 T01220089
  • 011053Z AUTO 25009KT 10SM SCT016 OVC025 12/09 A3000 RMK AO2 SLP168 T01170089

TAF KSNS
Valide du 01 à 12h jusqu'au 02 à 12h UTC


011120Z 0112/0212 26008KT P6SM BKN015
TEMPO 0112/0116 BKN025
FM011600 27011KT P6SM SCT030
FM011800 28014G20KT P6SM FEW030
FM020300 24010G15KT P6SM FEW020
FM020600 24008KT P6SM FEW015



MET'MAP, la Météo Aéronautique d'un coup d'oeil ! - Copyright ORBIFLY Décembre 2007 - Disclaimer

ORBIFLY MET'MAP TEAM :

Programmation & Développement : Alexandra Zaïnal
Sur une idée originale de : Baudouin d'Aumeries
Assistance à la programmation : Marc-Olivier Méhu
Soutien technique & logistique : Manuel Goepfert

Contact : metmap@orbifly.com




SOURCES & CREDITS :

   NOAA       Earth
Advisory